Time;durP1;ratioP1;P1;durP2;ratioP2;P2;SDS_P1;SDS_P2;PMS_P1;PMS_P2;Temp;Humidity;BMP_temperature;BMP_pressure;BME280_temperature;BME280_humidity;BME280_pressure;Samples;Min_cycle;Max_cycle;Signal;HPM_P1;HPM_P2
2021/10/07 00:01:37;;;;;;;34.30;22.13;;;13.80;97.90;;;;;;5114519;28;20455;-66
2021/10/07 00:04:04;;;;;;;27.30;23.23;;;13.80;98.00;;;;;;5114039;28;21038;-66
2021/10/07 00:06:31;;;;;;;28.20;23.33;;;13.70;97.90;;;;;;5114000;28;20478;-66
2021/10/07 00:08:57;;;;;;;28.27;21.37;;;13.80;98.00;;;;;;5114183;28;20467;-66
2021/10/07 00:11:26;;;;;;;37.23;24.20;;;13.80;97.80;;;;;;5114208;28;20439;-66
2021/10/07 00:13:54;;;;;;;25.53;22.70;;;13.80;97.90;;;;;;5114234;28;20442;-66
2021/10/07 00:16:21;;;;;;;33.60;22.17;;;13.80;98.00;;;;;;5114089;28;20771;-66
2021/10/07 00:18:51;;;;;;;33.47;25.57;;;13.80;98.00;;;;;;5114081;28;20855;-67
2021/10/07 00:21:18;;;;;;;35.83;23.10;;;13.80;97.90;;;;;;5113743;28;20951;-66
2021/10/07 00:23:54;;;;;;;37.60;23.27;;;13.80;98.00;;;;;;5114054;28;20447;-66
2021/10/07 00:26:21;;;;;;;35.93;25.03;;;13.80;98.00;;;;;;5114026;28;20469;-66
2021/10/07 00:28:49;;;;;;;30.20;23.17;;;13.80;98.00;;;;;;5113977;28;20475;-66
2021/10/07 00:31:19;;;;;;;37.03;22.40;;;13.80;98.10;;;;;;5113949;28;20489;-66
2021/10/07 00:33:57;;;;;;;36.13;24.20;;;13.80;98.10;;;;;;5113720;28;20474;-66
2021/10/07 00:36:37;;;;;;;30.80;22.87;;;13.80;98.00;;;;;;5113963;28;20526;-66
2021/10/07 00:39:04;;;;;;;28.90;21.23;;;13.80;98.00;;;;;;5113868;28;20463;-66
2021/10/07 00:41:31;;;;;;;36.67;23.53;;;13.80;98.00;;;;;;5113900;28;20464;-66
2021/10/07 00:44:04;;;;;;;35.33;23.00;;;13.80;98.10;;;;;;5113865;28;20450;-66
2021/10/07 00:46:31;;;;;;;31.00;23.57;;;13.80;98.10;;;;;;5113803;28;20467;-66
2021/10/07 00:48:59;;;;;;;37.77;22.23;;;13.80;98.20;;;;;;5113541;28;20462;-66
2021/10/07 00:51:27;;;;;;;35.90;24.80;;;13.80;98.10;;;;;;5114041;28;20542;-66
2021/10/07 00:53:54;;;;;;;33.27;24.07;;;13.90;98.20;;;;;;5113781;28;20443;-66
2021/10/07 00:56:21;;;;;;;32.10;22.00;;;13.90;98.30;;;;;;5113740;28;20442;-66
2021/10/07 00:58:48;;;;;;;29.70;21.63;;;13.80;98.20;;;;;;5113673;28;20474;-66
2021/10/07 01:01:16;;;;;;;42.00;24.40;;;13.80;98.10;;;;;;5113729;28;20445;-66
2021/10/07 01:03:43;;;;;;;41.87;25.00;;;13.90;98.20;;;;;;5113391;28;20451;-66
2021/10/07 01:06:10;;;;;;;38.97;24.50;;;13.90;98.20;;;;;;5113455;28;20487;-66
2021/10/07 01:08:37;;;;;;;37.97;25.23;;;13.90;98.20;;;;;;5113870;28;20469;-67
2021/10/07 01:11:03;;;;;;;44.73;25.10;;;13.90;98.20;;;;;;5117660;27;20474;-66
2021/10/07 01:13:30;;;;;;;34.43;23.90;;;13.90;98.20;;;;;;5117624;28;20438;-66
2021/10/07 01:16:01;;;;;;;42.90;24.20;;;13.90;98.20;;;;;;5117663;28;20434;-66
2021/10/07 01:18:29;;;;;;;34.17;23.43;;;13.90;98.20;;;;;;5117134;28;20525;-66
2021/10/07 01:20:57;;;;;;;40.97;25.00;;;14.00;98.20;;;;;;5117392;28;20442;-66
2021/10/07 01:23:24;;;;;;;37.70;26.23;;;14.00;98.10;;;;;;5117726;28;20443;-66
2021/10/07 01:25:51;;;;;;;41.30;24.90;;;14.00;98.00;;;;;;5117047;28;20992;-66
2021/10/07 01:28:18;;;;;;;35.73;25.57;;;14.00;98.00;;;;;;5117473;28;20443;-67
2021/10/07 01:30:45;;;;;;;36.00;23.53;;;14.00;98.10;;;;;;5117178;28;20442;-66
2021/10/07 01:33:12;;;;;;;39.17;24.57;;;14.00;98.10;;;;;;5117259;28;20447;-66
2021/10/07 01:35:39;;;;;;;42.63;24.83;;;14.00;98.10;;;;;;5117225;28;20497;-66
2021/10/07 01:38:07;;;;;;;40.17;25.23;;;14.00;98.60;;;;;;5117145;28;20449;-66
2021/10/07 01:40:33;;;;;;;35.97;24.07;;;14.00;98.30;;;;;;5116680;28;20976;-66
2021/10/07 01:43:00;;;;;;;43.77;25.63;;;14.00;98.20;;;;;;5117084;28;20466;-66
2021/10/07 01:45:27;;;;;;;37.13;25.43;;;14.00;98.20;;;;;;5116946;28;20443;-66
2021/10/07 01:47:54;;;;;;;38.53;24.40;;;14.00;98.10;;;;;;5116897;28;20483;-66
2021/10/07 01:50:21;;;;;;;39.73;27.53;;;14.00;98.20;;;;;;5116839;28;20485;-67
2021/10/07 01:52:47;;;;;;;43.03;24.63;;;14.00;98.20;;;;;;5116593;28;20449;-66
2021/10/07 01:55:15;;;;;;;39.90;26.20;;;14.00;98.20;;;;;;5116853;28;20443;-66
2021/10/07 01:57:42;;;;;;;41.33;25.20;;;14.10;98.20;;;;;;5117090;27;20447;-66
2021/10/07 02:00:11;;;;;;;41.10;25.20;;;14.00;98.10;;;;;;5116740;28;20515;-66
2021/10/07 02:02:37;;;;;;;36.73;24.23;;;14.10;98.20;;;;;;5116551;28;20499;-66
2021/10/07 02:05:05;;;;;;;40.77;26.33;;;14.10;98.10;;;;;;5116636;28;20862;-66
2021/10/07 02:07:31;;;;;;;43.03;25.97;;;14.10;98.10;;;;;;5116175;28;20555;-66
2021/10/07 02:09:58;;;;;;;38.20;24.10;;;14.10;98.00;;;;;;5116471;28;20459;-67
2021/10/07 02:12:26;;;;;;;42.13;23.60;;;14.10;98.00;;;;;;5116499;28;20449;-67
2021/10/07 02:14:53;;;;;;;41.10;24.90;;;14.10;98.00;;;;;;5116442;28;20450;-67
2021/10/07 02:17:20;;;;;;;37.90;22.47;;;14.10;98.00;;;;;;5116433;28;20446;-66
2021/10/07 02:19:47;;;;;;;50.47;25.47;;;14.10;98.00;;;;;;5116368;28;20459;-67
2021/10/07 02:22:14;;;;;;;46.37;24.93;;;14.10;98.00;;;;;;5115467;28;20443;-66
2021/10/07 02:24:41;;;;;;;52.80;26.37;;;14.20;98.10;;;;;;5116291;28;20786;-66
2021/10/07 02:27:07;;;;;;;46.07;26.03;;;14.20;98.10;;;;;;5116142;28;20482;-66
2021/10/07 02:29:36;;;;;;;50.93;26.50;;;14.10;98.10;;;;;;5116081;28;20485;-67
2021/10/07 02:32:03;;;;;;;47.60;25.50;;;14.10;98.10;;;;;;5116120;28;20447;-67
2021/10/07 02:34:30;;;;;;;54.60;28.67;;;14.20;98.20;;;;;;5116044;28;20936;-67
2021/10/07 02:36:57;;;;;;;59.00;29.90;;;14.20;98.10;;;;;;5116008;28;20439;-67
2021/10/07 02:39:24;;;;;;;52.50;29.30;;;14.20;98.10;;;;;;5115886;28;20478;-67
2021/10/07 02:41:51;;;;;;;54.50;27.27;;;14.30;98.10;;;;;;5115917;28;20439;-67
2021/10/07 02:44:17;;;;;;;55.43;27.87;;;14.30;98.10;;;;;;5115863;28;20447;-67
2021/10/07 02:46:45;;;;;;;44.60;24.20;;;14.30;98.00;;;;;;5115738;27;20471;-67
2021/10/07 02:49:12;;;;;;;57.90;29.17;;;14.30;98.00;;;;;;5115711;28;20462;-67
2021/10/07 02:51:39;;;;;;;51.73;28.20;;;14.20;98.00;;;;;;5115737;28;20455;-67
2021/10/07 02:54:05;;;;;;;53.27;27.20;;;14.30;98.10;;;;;;5115676;27;20450;-67
2021/10/07 02:56:32;;;;;;;51.87;28.03;;;14.30;98.00;;;;;;5115643;28;20431;-67
2021/10/07 02:58:59;;;;;;;56.83;27.03;;;14.30;98.10;;;;;;5115507;28;20470;-67
2021/10/07 03:01:26;;;;;;;55.57;28.37;;;14.30;98.10;;;;;;5115193;28;20925;-67
2021/10/07 03:03:54;;;;;;;41.10;24.57;;;14.30;98.00;;;;;;5115143;28;21012;-67
2021/10/07 03:06:21;;;;;;;44.23;25.13;;;14.30;98.00;;;;;;5114962;28;20478;-67
2021/10/07 03:08:48;;;;;;;39.77;27.23;;;14.40;98.00;;;;;;5115333;28;20470;-67
2021/10/07 03:11:15;;;;;;;52.90;25.93;;;14.40;97.90;;;;;;5115068;28;20802;-67
2021/10/07 03:13:42;;;;;;;59.33;28.17;;;14.40;97.80;;;;;;5115272;28;20465;-67
2021/10/07 03:16:08;;;;;;;53.37;27.27;;;14.40;97.80;;;;;;5115234;28;20473;-67
2021/10/07 03:18:35;;;;;;;60.20;29.17;;;14.40;97.70;;;;;;5115122;27;20843;-67
2021/10/07 03:21:03;;;;;;;51.20;26.97;;;14.50;97.70;;;;;;5115143;28;20454;-67
2021/10/07 03:23:30;;;;;;;59.00;28.90;;;14.50;97.50;;;;;;5114789;28;20439;-67
2021/10/07 03:25:57;;;;;;;53.73;29.80;;;14.40;97.50;;;;;;5115066;28;20447;-67
2021/10/07 03:28:23;;;;;;;54.23;28.63;;;14.40;97.50;;;;;;5114852;28;20475;-67
2021/10/07 03:30:50;;;;;;;58.87;29.03;;;14.40;97.60;;;;;;5114952;28;20443;-67
2021/10/07 03:33:17;;;;;;;61.53;29.30;;;14.40;97.50;;;;;;5114806;28;20442;-67
2021/10/07 03:35:43;;;;;;;48.97;28.63;;;14.40;97.60;;;;;;5114820;28;20846;-67
2021/10/07 03:38:12;;;;;;;40.00;26.30;;;14.40;97.60;;;;;;5114577;28;20439;-67
2021/10/07 03:40:39;;;;;;;44.10;25.30;;;14.40;97.50;;;;;;5114692;28;20459;-67
2021/10/07 03:43:05;;;;;;;55.53;29.07;;;14.50;97.40;;;;;;5114683;28;20439;-67
2021/10/07 03:45:32;;;;;;;62.23;29.90;;;14.40;97.20;;;;;;5114641;28;20451;-67
2021/10/07 03:47:59;;;;;;;52.63;26.70;;;14.40;97.30;;;;;;5114250;28;21007;-66
2021/10/07 03:50:26;;;;;;;46.90;27.07;;;14.40;97.40;;;;;;5114179;28;20455;-67
2021/10/07 03:52:53;;;;;;;45.97;25.57;;;14.50;97.80;;;;;;5114555;28;20439;-67
2021/10/07 03:55:21;;;;;;;47.23;27.60;;;14.50;97.40;;;;;;5114503;28;20442;-67
2021/10/07 03:57:48;;;;;;;45.93;25.60;;;14.50;97.40;;;;;;5114891;28;20511;-67
2021/10/07 04:00:16;;;;;;;44.77;26.50;;;14.50;97.30;;;;;;5114538;28;20467;-67
2021/10/07 04:02:42;;;;;;;42.73;26.27;;;14.50;97.30;;;;;;5114596;28;20451;-67
2021/10/07 04:05:10;;;;;;;45.33;26.37;;;14.50;97.30;;;;;;5114227;28;20474;-67
2021/10/07 04:07:36;;;;;;;30.20;21.50;;;14.50;97.20;;;;;;5114055;28;20493;-67
2021/10/07 04:10:03;;;;;;;30.37;21.30;;;14.50;97.10;;;;;;5113903;28;20964;-67
2021/10/07 04:12:32;;;;;;;43.30;25.83;;;14.50;96.90;;;;;;5114281;28;20439;-67
2021/10/07 04:14:58;;;;;;;36.20;23.00;;;14.50;96.80;;;;;;5114223;28;20446;-67
2021/10/07 04:17:25;;;;;;;47.07;26.70;;;14.50;96.70;;;;;;5114259;28;20439;-67
2021/10/07 04:19:52;;;;;;;34.10;20.63;;;14.60;96.60;;;;;;5114124;28;20463;-67
2021/10/07 04:22:18;;;;;;;38.80;24.93;;;14.60;96.50;;;;;;5114151;28;20829;-67
2021/10/07 04:24:45;;;;;;;44.53;26.10;;;14.60;96.40;;;;;;5114097;28;20447;-67
2021/10/07 04:27:14;;;;;;;35.93;22.67;;;14.60;96.30;;;;;;5113696;28;20470;-67
2021/10/07 04:29:42;;;;;;;43.20;27.17;;;14.60;96.30;;;;;;5113984;28;20557;-67
2021/10/07 04:32:09;;;;;;;35.67;23.67;;;14.70;96.20;;;;;;5113754;28;20940;-67
2021/10/07 04:34:36;;;;;;;41.50;25.67;;;14.60;96.20;;;;;;5114011;28;20826;-67
2021/10/07 04:37:03;;;;;;;41.20;26.70;;;14.60;96.00;;;;;;5113923;28;20465;-67
2021/10/07 04:39:30;;;;;;;40.93;25.43;;;14.70;96.00;;;;;;5113573;28;21003;-67
2021/10/07 04:41:56;;;;;;;40.60;25.40;;;14.70;96.10;;;;;;5113968;28;20439;-67
2021/10/07 04:44:23;;;;;;;42.50;28.00;;;14.70;96.10;;;;;;5115320;28;20967;-67
2021/10/07 04:46:51;;;;;;;53.10;28.67;;;14.70;96.10;;;;;;5118078;28;20475;-67
2021/10/07 04:49:18;;;;;;;40.80;23.80;;;14.70;96.00;;;;;;5118061;28;20462;-68
2021/10/07 04:51:44;;;;;;;39.13;23.53;;;14.70;96.00;;;;;;5117764;28;20968;-67
2021/10/07 04:54:11;;;;;;;36.20;23.67;;;14.70;96.00;;;;;;5118078;28;20438;-67
2021/10/07 04:56:38;;;;;;;34.50;23.57;;;14.70;95.90;;;;;;5118817;28;20447;-67
2021/10/07 04:59:05;;;;;;;42.03;24.70;;;14.70;95.90;;;;;;5117869;28;20474;-67
2021/10/07 05:01:31;;;;;;;30.80;19.80;;;14.70;95.80;;;;;;5118550;28;20538;-67
2021/10/07 05:04:02;;;;;;;31.00;18.60;;;14.70;95.70;;;;;;5117808;28;20872;-67
2021/10/07 05:06:29;;;;;;;29.60;18.90;;;14.70;95.60;;;;;;5117522;28;20454;-68
2021/10/07 05:08:56;;;;;;;39.73;18.97;;;14.70;95.60;;;;;;5117537;28;20539;-68
2021/10/07 05:11:23;;;;;;;38.33;20.53;;;14.70;95.40;;;;;;5117739;28;20446;-67
2021/10/07 05:13:50;;;;;;;27.33;15.77;;;14.70;95.40;;;;;;5117612;28;20447;-67
2021/10/07 05:16:17;;;;;;;26.00;15.50;;;14.70;95.40;;;;;;5117602;28;20526;-67
2021/10/07 05:18:44;;;;;;;25.40;16.43;;;14.70;95.30;;;;;;5117482;28;20573;-67
2021/10/07 05:21:12;;;;;;;32.20;20.33;;;14.70;95.30;;;;;;5117612;28;20442;-67
2021/10/07 05:23:39;;;;;;;32.30;19.77;;;14.70;95.20;;;;;;5117434;28;20836;-67
2021/10/07 05:26:05;;;;;;;36.47;21.03;;;14.70;95.20;;;;;;5117429;28;20447;-67
2021/10/07 05:28:32;;;;;;;27.10;16.73;;;14.70;95.30;;;;;;5117178;28;20481;-67
2021/10/07 05:30:59;;;;;;;37.73;21.17;;;14.70;95.30;;;;;;5117353;28;20435;-67
2021/10/07 05:33:26;;;;;;;32.67;20.20;;;14.70;95.30;;;;;;5117276;28;20816;-67
2021/10/07 05:35:52;;;;;;;31.83;19.60;;;14.70;95.30;;;;;;5117188;28;20816;-67
2021/10/07 05:38:20;;;;;;;28.37;16.90;;;14.70;95.60;;;;;;5117064;28;20443;-67
2021/10/07 05:40:47;;;;;;;27.13;17.00;;;14.70;95.20;;;;;;5117117;28;20453;-67
2021/10/07 05:43:14;;;;;;;35.83;21.87;;;14.70;95.10;;;;;;5117051;28;20446;-67
2021/10/07 05:45:41;;;;;;;29.40;18.47;;;14.70;95.00;;;;;;5117050;28;20443;-67
2021/10/07 05:48:07;;;;;;;33.00;21.90;;;14.70;94.90;;;;;;5116924;28;20516;-67
2021/10/07 05:50:34;;;;;;;30.83;19.47;;;14.70;94.90;;;;;;5116617;28;21011;-67
2021/10/07 05:53:01;;;;;;;32.83;20.40;;;14.70;95.10;;;;;;5116960;27;20446;-67
2021/10/07 05:55:29;;;;;;;35.77;19.40;;;14.70;94.70;;;;;;5115554;28;20439;-67
2021/10/07 05:57:56;;;;;;;31.80;19.13;;;14.70;94.80;;;;;;5116816;28;20439;-67
2021/10/07 06:00:23;;;;;;;32.80;18.37;;;14.70;94.80;;;;;;5116660;28;20489;-67
2021/10/07 06:02:50;;;;;;;28.40;19.63;;;14.70;94.70;;;;;;5116719;28;20445;-67
2021/10/07 06:05:17;;;;;;;30.90;19.93;;;14.70;94.70;;;;;;5116651;28;20455;-67
2021/10/07 06:07:44;;;;;;;30.10;20.13;;;14.70;94.70;;;;;;5116752;27;20478;-67
2021/10/07 06:10:14;;;;;;;29.80;18.80;;;14.70;94.80;;;;;;5116631;27;20463;-67
2021/10/07 06:12:42;;;;;;;30.30;19.63;;;14.70;94.70;;;;;;5116793;28;20439;-67
2021/10/07 06:15:10;;;;;;;28.47;17.47;;;14.70;94.70;;;;;;5116448;28;20793;-67
2021/10/07 06:17:37;;;;;;;35.00;20.20;;;14.70;94.80;;;;;;5116388;28;20443;-67
2021/10/07 06:20:06;;;;;;;34.17;20.90;;;14.70;94.90;;;;;;5116278;28;20467;-67
2021/10/07 06:22:33;;;;;;;30.00;19.10;;;14.70;94.90;;;;;;5116332;28;20492;-67
2021/10/07 06:25:00;;;;;;;27.67;17.83;;;14.80;94.80;;;;;;5116324;28;20442;-67
2021/10/07 06:27:27;;;;;;;26.07;17.90;;;14.80;94.80;;;;;;5116152;28;20478;-67
2021/10/07 06:29:55;;;;;;;25.30;16.80;;;14.80;94.60;;;;;;5116083;28;20467;-67
2021/10/07 06:32:22;;;;;;;31.73;18.10;;;14.80;94.40;;;;;;5116153;28;20496;-67
2021/10/07 06:34:48;;;;;;;24.50;15.87;;;14.80;94.20;;;;;;5116119;28;20446;-67
2021/10/07 06:37:15;;;;;;;25.23;18.37;;;14.80;94.10;;;;;;5116056;28;20447;-67
2021/10/07 06:39:42;;;;;;;29.13;18.97;;;14.90;94.20;;;;;;5116053;28;20463;-67
2021/10/07 06:42:09;;;;;;;30.57;19.23;;;14.80;94.10;;;;;;5115653;28;20439;-67
2021/10/07 06:44:36;;;;;;;25.80;16.80;;;14.90;94.10;;;;;;5115875;28;20461;-67
2021/10/07 06:47:05;;;;;;;27.93;15.73;;;14.90;93.90;;;;;;5115870;28;20438;-67
2021/10/07 06:49:31;;;;;;;25.00;17.00;;;14.90;93.80;;;;;;5115691;28;20488;-67
2021/10/07 06:51:58;;;;;;;24.20;16.30;;;14.90;93.70;;;;;;5115816;27;20458;-67
2021/10/07 06:54:25;;;;;;;18.83;14.17;;;14.90;93.50;;;;;;5115745;28;20450;-67
2021/10/07 06:56:52;;;;;;;28.40;17.30;;;14.90;93.40;;;;;;5116080;28;20449;-67
2021/10/07 06:59:18;;;;;;;23.37;16.13;;;14.90;93.30;;;;;;5116789;28;20478;-67
2021/10/07 07:01:45;;;;;;;21.63;15.50;;;14.90;93.20;;;;;;5115889;28;20469;-67
2021/10/07 07:04:16;;;;;;;24.07;18.00;;;14.90;93.20;;;;;;5115785;28;20466;-67
2021/10/07 07:06:43;;;;;;;27.03;18.47;;;14.90;93.10;;;;;;5115157;28;20461;-67
2021/10/07 07:09:10;;;;;;;27.10;16.20;;;14.90;93.10;;;;;;5115233;28;20531;-67
2021/10/07 07:11:37;;;;;;;24.60;16.03;;;15.00;93.20;;;;;;5115590;28;20442;-67
2021/10/07 07:14:05;;;;;;;26.93;16.07;;;15.00;93.20;;;;;;5115148;28;20446;-67
2021/10/07 07:16:32;;;;;;;22.20;14.50;;;15.10;93.30;;;;;;5115309;28;20442;-67
2021/10/07 07:18:59;;;;;;;23.70;16.50;;;15.10;93.30;;;;;;5115134;28;20455;-67
2021/10/07 07:21:30;;;;;;;23.07;13.90;;;15.20;93.30;;;;;;5115225;28;20443;-67
2021/10/07 07:23:57;;;;;;;22.33;13.90;;;15.20;93.30;;;;;;5115184;28;20857;-67
2021/10/07 07:26:24;;;;;;;28.57;14.73;;;15.30;93.40;;;;;;5114789;28;20500;-67
2021/10/07 07:28:51;;;;;;;23.23;14.77;;;15.30;93.30;;;;;;5114883;28;20968;-67
2021/10/07 07:31:18;;;;;;;28.70;16.80;;;15.40;93.30;;;;;;5115008;28;20454;-67
2021/10/07 07:33:46;;;;;;;24.27;15.87;;;15.60;93.30;;;;;;5114957;28;20446;-67
2021/10/07 07:36:13;;;;;;;21.20;15.03;;;15.70;93.30;;;;;;5114962;28;20443;-67
2021/10/07 07:38:41;;;;;;;20.50;14.20;;;15.80;93.10;;;;;;5114387;28;20484;-67
2021/10/07 07:41:08;;;;;;;19.40;14.23;;;15.90;92.90;;;;;;5114839;28;20450;-67
2021/10/07 07:43:35;;;;;;;21.80;15.00;;;16.00;92.50;;;;;;5114453;28;20940;-67
2021/10/07 07:46:02;;;;;;;16.63;12.60;;;16.10;92.60;;;;;;5114846;28;20446;-67
2021/10/07 07:48:28;;;;;;;21.87;14.00;;;16.30;92.40;;;;;;5114206;28;21004;-67
2021/10/07 07:50:55;;;;;;;19.07;12.17;;;16.40;92.10;;;;;;5115498;28;20434;-67
2021/10/07 07:53:22;;;;;;;15.03;12.20;;;16.50;91.60;;;;;;5114707;28;20431;-67
2021/10/07 07:55:51;;;;;;;19.57;13.40;;;16.60;91.10;;;;;;5114248;28;20922;-67
2021/10/07 07:58:18;;;;;;;17.87;12.03;;;16.60;90.70;;;;;;5114200;28;20809;-69
2021/10/07 08:00:45;;;;;;;20.73;12.77;;;16.60;90.40;;;;;;5114150;28;20575;-67
2021/10/07 08:03:12;;;;;;;17.70;11.13;;;16.60;90.20;;;;;;5114084;28;20442;-67
2021/10/07 08:05:39;;;;;;;17.70;11.13;;;16.60;89.80;;;;;;5114127;28;20443;-67
2021/10/07 08:08:06;;;;;;;16.30;11.77;;;16.60;89.30;;;;;;5114271;28;20560;-67
2021/10/07 08:10:33;;;;;;;17.13;12.23;;;16.60;88.80;;;;;;5114147;28;20463;-67
2021/10/07 08:13:02;;;;;;;20.27;12.97;;;16.60;88.70;;;;;;5114256;28;20461;-67
2021/10/07 08:15:29;;;;;;;16.33;12.73;;;16.60;88.50;;;;;;5114288;28;20431;-67
2021/10/07 08:17:56;;;;;;;18.57;11.37;;;16.50;88.50;;;;;;5113978;28;20439;-67
2021/10/07 08:20:23;;;;;;;19.03;14.00;;;16.50;89.00;;;;;;5113436;28;20859;-67
2021/10/07 08:22:50;;;;;;;20.63;11.97;;;16.60;89.40;;;;;;5113756;28;20812;-67
2021/10/07 08:25:18;;;;;;;13.57;9.77;;;16.70;89.40;;;;;;5113726;28;20486;-67
2021/10/07 08:27:46;;;;;;;11.20;8.40;;;16.80;89.40;;;;;;5114083;28;20431;-67
2021/10/07 08:30:16;;;;;;;14.07;8.60;;;17.00;89.30;;;;;;5113654;28;20995;-67
2021/10/07 08:32:43;;;;;;;10.70;6.97;;;17.10;88.60;;;;;;5113704;28;20949;-67
2021/10/07 08:35:11;;;;;;;7.73;5.97;;;17.20;87.90;;;;;;5114007;28;20810;-67
2021/10/07 08:37:38;;;;;;;10.93;7.10;;;17.40;87.10;;;;;;5114823;28;20423;-67
2021/10/07 08:40:07;;;;;;;8.27;6.80;;;17.60;86.50;;;;;;5113880;28;20888;-67
2021/10/07 08:42:34;;;;;;;12.10;7.27;;;17.70;85.70;;;;;;5113965;28;20450;-67
2021/10/07 08:45:01;;;;;;;9.07;7.50;;;17.90;84.90;;;;;;5113607;28;20956;-67
2021/10/07 08:47:30;;;;;;;9.23;7.87;;;18.00;84.00;;;;;;5113497;28;20447;-67
2021/10/07 08:49:57;;;;;;;9.57;6.20;;;18.10;83.20;;;;;;5113817;28;20493;-67
2021/10/07 08:52:24;;;;;;;6.20;5.60;;;18.10;82.40;;;;;;5113587;28;20431;-67
2021/10/07 08:54:51;;;;;;;10.80;6.30;;;18.20;82.00;;;;;;5113823;28;20443;-67
2021/10/07 08:57:18;;;;;;;8.30;5.80;;;18.20;81.60;;;;;;5113786;28;20844;-67
2021/10/07 08:59:45;;;;;;;9.57;5.97;;;18.30;81.30;;;;;;5114287;28;20488;-67
2021/10/07 09:02:25;;;;;;;6.80;4.80;;;18.30;81.00;;;;;;5113780;28;20446;-67
2021/10/07 09:04:53;;;;;;;13.17;11.57;;;18.40;80.50;;;;;;5113771;28;20438;-67
2021/10/07 09:07:22;;;;;;;12.77;9.87;;;18.40;79.80;;;;;;5113399;28;20815;-67
2021/10/07 09:09:49;;;;;;;8.80;6.60;;;18.50;78.70;;;;;;5113543;28;20478;-67
2021/10/07 09:12:18;;;;;;;11.23;7.43;;;18.50;78.00;;;;;;5113584;28;20443;-67
2021/10/07 09:14:46;;;;;;;9.10;6.40;;;18.50;77.90;;;;;;5113523;28;20472;-67
2021/10/07 09:17:16;;;;;;;15.57;8.93;;;18.40;76.40;;;;;;5113365;28;20451;-67
2021/10/07 09:19:45;;;;;;;12.40;6.90;;;18.40;77.00;;;;;;5113702;28;20455;-67
2021/10/07 09:22:18;;;;;;;6.83;4.90;;;18.40;77.60;;;;;;5113594;28;20450;-67
2021/10/07 09:24:46;;;;;;;6.73;5.50;;;18.40;78.50;;;;;;5113796;28;20446;-67
2021/10/07 09:27:14;;;;;;;6.27;4.90;;;18.40;77.90;;;;;;5113523;28;20445;-67
2021/10/07 09:29:49;;;;;;;4.87;4.23;;;18.50;77.90;;;;;;5113714;28;20487;-67
2021/10/07 09:32:24;;;;;;;6.67;5.00;;;18.50;78.00;;;;;;5117114;28;20395;-67
2021/10/07 09:34:52;;;;;;;5.90;5.17;;;18.60;77.80;;;;;;5117218;28;20792;-67
2021/10/07 09:37:27;;;;;;;6.10;5.07;;;18.70;77.30;;;;;;5117251;28;20433;-67
2021/10/07 09:39:57;;;;;;;7.13;4.77;;;18.80;76.90;;;;;;5117155;28;20458;-67
2021/10/07 09:42:27;;;;;;;6.63;5.90;;;18.80;76.50;;;;;;5116865;27;20431;-67
2021/10/07 09:45:12;;;;;;;4.97;4.50;;;18.80;76.00;;;;;;5117005;28;20438;-67
2021/10/07 09:47:42;;;;;;;6.87;4.90;;;18.90;75.60;;;;;;5117123;27;20494;-67
2021/10/07 09:50:13;;;;;;;8.60;4.60;;;18.90;75.50;;;;;;5116801;28;20913;-67
2021/10/07 09:52:43;;;;;;;10.90;6.37;;;19.10;75.70;;;;;;5116965;28;20470;-67
2021/10/07 09:55:11;;;;;;;8.00;5.30;;;19.30;74.90;;;;;;5116844;28;20454;-68
2021/10/07 09:57:49;;;;;;;6.57;5.10;;;19.60;73.60;;;;;;5117234;28;20507;-67
2021/10/07 10:00:16;;;;;;;5.63;4.73;;;20.00;72.50;;;;;;5116735;28;20474;-67
2021/10/07 10:02:43;;;;;;;5.33;3.90;;;20.50;71.60;;;;;;5116741;28;20431;-67
2021/10/07 10:05:12;;;;;;;4.90;3.90;;;21.00;70.50;;;;;;5116719;28;20434;-67
2021/10/07 10:07:38;;;;;;;6.90;4.60;;;21.50;68.40;;;;;;5116253;28;20644;-67
2021/10/07 10:10:08;;;;;;;7.67;4.57;;;22.00;64.70;;;;;;5116461;27;20490;-67
2021/10/07 10:12:35;;;;;;;5.60;4.87;;;22.60;62.70;;;;;;5116564;28;20434;-67
2021/10/07 10:15:02;;;;;;;9.60;4.90;;;23.00;58.30;;;;;;5116505;28;20451;-67
2021/10/07 10:17:29;;;;;;;5.37;4.10;;;23.30;56.90;;;;;;5116430;28;20439;-67
2021/10/07 10:19:58;;;;;;;4.77;3.73;;;23.70;56.20;;;;;;5116052;28;20964;-67
2021/10/07 10:22:27;;;;;;;4.40;3.50;;;23.80;55.50;;;;;;5116047;28;20449;-67
2021/10/07 10:24:54;;;;;;;4.53;3.57;;;24.00;55.10;;;;;;5116302;27;20516;-67
2021/10/07 10:27:22;;;;;;;4.80;3.70;;;24.30;54.40;;;;;;5116237;28;20513;-67
2021/10/07 10:29:49;;;;;;;4.43;3.50;;;24.80;53.40;;;;;;5115831;28;20883;-67
2021/10/07 10:32:16;;;;;;;4.43;3.53;;;25.30;52.80;;;;;;5115902;28;20860;-67
2021/10/07 10:34:45;;;;;;;5.47;3.47;;;25.90;51.20;;;;;;5116069;28;20439;-68
2021/10/07 10:37:14;;;;;;;5.67;4.10;;;26.50;49.60;;;;;;5115909;28;20439;-68
2021/10/07 10:39:45;;;;;;;7.20;4.70;;;27.20;47.40;;;;;;5115496;28;21000;-68
2021/10/07 10:42:26;;;;;;;5.77;3.53;;;27.70;45.10;;;;;;5114796;28;20863;-68
2021/10/07 10:44:55;;;;;;;4.80;3.57;;;28.20;43.50;;;;;;5115943;27;20431;-68
2021/10/07 10:47:27;;;;;;;3.60;3.00;;;28.60;41.90;;;;;;5115789;28;20537;-68
2021/10/07 10:50:04;;;;;;;3.63;2.60;;;29.00;40.50;;;;;;5115717;28;20478;-68
2021/10/07 10:52:33;;;;;;;5.97;3.50;;;28.80;40.80;;;;;;5115691;28;20419;-68
2021/10/07 10:55:06;;;;;;;4.63;3.30;;;28.40;41.20;;;;;;5115306;28;20445;-68
2021/10/07 10:57:38;;;;;;;4.67;3.07;;;28.10;41.70;;;;;;5115732;28;20430;-68
2021/10/07 11:00:14;;;;;;;4.40;2.87;;;28.20;41.50;;;;;;5115587;28;20462;-68
2021/10/07 11:02:42;;;;;;;6.27;3.47;;;28.60;40.90;;;;;;5115203;27;20908;-68
2021/10/07 11:05:21;;;;;;;7.10;3.13;;;28.90;38.30;;;;;;5115214;28;20492;-69
2021/10/07 11:08:15;;;;;;;6.23;2.73;;;28.40;37.70;;;;;;5115130;28;20450;-68
2021/10/07 11:10:44;;;;;;;6.03;2.57;;;27.70;39.80;;;;;;5115252;28;20527;-69
2021/10/07 11:13:16;;;;;;;3.40;2.27;;;27.00;41.50;;;;;;5115359;27;20447;-69
2021/10/07 11:15:47;;;;;;;3.20;2.90;;;26.40;43.10;;;;;;5116099;28;20856;-69
2021/10/07 11:18:14;;;;;;;4.13;2.90;;;25.90;44.60;;;;;;5114954;28;20428;-68
2021/10/07 11:20:41;;;;;;;4.70;2.87;;;25.50;46.10;;;;;;5115116;28;20452;-68
2021/10/07 11:23:11;;;;;;;3.87;3.20;;;25.70;48.40;;;;;;5115169;28;20485;-68
2021/10/07 11:25:41;;;;;;;6.23;4.23;;;26.40;47.50;;;;;;5115135;28;20900;-68
2021/10/07 11:28:09;;;;;;;6.90;5.07;;;27.40;45.60;;;;;;5115077;28;20939;-68
2021/10/07 11:30:40;;;;;;;3.80;3.10;;;28.60;42.40;;;;;;5114902;28;20483;-68
2021/10/07 11:33:07;;;;;;;5.03;3.50;;;29.60;38.50;;;;;;5114924;28;20474;-68
2021/10/07 11:35:35;;;;;;;5.87;3.10;;;30.50;37.50;;;;;;5115015;28;20431;-68
2021/10/07 11:38:05;;;;;;;6.33;3.53;;;31.30;36.40;;;;;;5114823;28;20780;-68
2021/10/07 11:40:41;;;;;;;5.53;3.27;;;31.80;34.80;;;;;;5114737;28;20459;-68
2021/10/07 11:43:11;;;;;;;4.53;3.80;;;32.20;33.00;;;;;;5114439;28;20427;-68
2021/10/07 11:45:40;;;;;;;4.17;3.20;;;31.90;32.70;;;;;;5114759;28;20439;-68
2021/10/07 11:48:10;;;;;;;4.70;4.10;;;31.50;34.00;;;;;;5114732;28;20449;-68
2021/10/07 11:50:41;;;;;;;9.00;4.60;;;31.60;33.90;;;;;;5114502;28;20477;-68
2021/10/07 11:53:09;;;;;;;3.73;3.43;;;31.50;33.60;;;;;;5114393;28;20423;-69
2021/10/07 11:55:40;;;;;;;3.90;3.50;;;31.10;34.60;;;;;;5114561;28;20431;-68
2021/10/07 11:58:07;;;;;;;3.83;3.23;;;30.50;35.70;;;;;;5114377;28;20449;-68
2021/10/07 12:00:47;;;;;;;3.77;3.10;;;29.90;36.90;;;;;;5114372;28;20799;-68
2021/10/07 12:03:23;;;;;;;4.57;3.53;;;29.30;38.20;;;;;;5114160;28;21010;-68
2021/10/07 12:05:54;;;;;;;4.63;4.23;;;28.70;39.20;;;;;;5114020;28;20920;-69
2021/10/07 12:08:23;;;;;;;6.90;5.13;;;28.20;39.90;;;;;;5114902;28;20480;-69
2021/10/07 12:10:52;;;;;;;10.00;8.20;;;27.70;40.80;;;;;;5114031;28;20475;-68
2021/10/07 12:13:21;;;;;;;5.97;5.37;;;27.80;41.40;;;;;;5114281;28;20811;-68
2021/10/07 12:15:53;;;;;;;4.00;3.60;;;28.40;41.20;;;;;;5114239;28;20439;-68
2021/10/07 12:18:20;;;;;;;7.00;4.10;;;29.40;39.70;;;;;;5114288;28;20427;-68
2021/10/07 12:21:08;;;;;;;4.63;4.20;;;30.30;37.80;;;;;;5113887;28;20983;-69
2021/10/07 12:23:50;;;;;;;4.80;4.37;;;31.30;36.10;;;;;;5114225;28;20431;-68
2021/10/07 12:26:33;;;;;;;6.57;5.87;;;32.30;33.50;;;;;;5114078;28;20440;-68
2021/10/07 12:29:02;;;;;;;6.10;5.33;;;33.20;31.50;;;;;;5114154;28;20451;-69
2021/10/07 12:31:32;;;;;;;6.47;5.87;;;33.80;30.40;;;;;;5114135;28;20434;-69
2021/10/07 12:34:00;;;;;;;8.10;7.30;;;34.10;29.80;;;;;;5113901;28;20438;-69
2021/10/07 12:36:39;;;;;;;8.60;6.00;;;34.50;29.00;;;;;;5114638;28;20426;-68
2021/10/07 12:39:08;;;;;;;7.93;7.13;;;35.00;28.50;;;;;;5113796;28;20454;-68